Time;durP1;ratioP1;P1;durP2;ratioP2;P2;SDS_P1;SDS_P2;PMS_P1;PMS_P2;Temp;Humidity;BMP_temperature;BMP_pressure;BME280_temperature;BME280_humidity;BME280_pressure;Samples;Min_cycle;Max_cycle;Signal;HPM_P1;HPM_P2
2021/11/04 00:02:11;;;;;;;74.17;15.40;;;;;;;;;;5056339;28;20455;-94
2021/11/04 00:04:38;;;;;;;73.93;15.60;;;;;;;;;;5058177;28;20476;-94
2021/11/04 00:07:06;;;;;;;71.27;14.30;;;;;;;;;;5057417;28;20447;-94
2021/11/04 00:09:33;;;;;;;75.10;14.80;;;;;;;;;;5057861;28;20464;-95
2021/11/04 00:12:01;;;;;;;74.77;15.10;;;;;;;;;;5056645;28;20487;-94
2021/11/04 00:14:27;;;;;;;75.47;16.00;;;;;;;;;;5056093;28;20464;-95
2021/11/04 00:16:53;;;;;;;72.93;15.60;;;;;;;;;;5056253;28;20477;-95
2021/11/04 00:19:20;;;;;;;75.67;15.43;;;;;;;;;;5056996;28;21109;-95
2021/11/04 00:21:46;;;;;;;73.07;16.33;;;;;;;;;;5053544;28;20460;-96
2021/11/04 00:24:13;;;;;;;71.70;15.17;;;;;;;;;;5055552;28;20471;-96
2021/11/04 00:26:39;;;;;;;69.80;13.70;;;;;;;;;;5056806;28;20475;-96
2021/11/04 00:29:07;;;;;;;72.40;12.87;;;;;;;;;;5058239;28;20453;-94
2021/11/04 00:31:34;;;;;;;70.77;14.50;;;;;;;;;;5056756;28;20462;-96
2021/11/04 00:34:01;;;;;;;70.77;13.77;;;;;;;;;;5057983;28;20452;-95
2021/11/04 00:36:28;;;;;;;70.20;14.93;;;;;;;;;;5056343;28;20519;-95
2021/11/04 00:38:55;;;;;;;77.30;14.67;;;;;;;;;;5056480;28;20479;-96
2021/11/04 00:41:21;;;;;;;73.60;13.73;;;;;;;;;;5056193;28;20463;-95
2021/11/04 00:43:48;;;;;;;80.47;15.50;;;;;;;;;;5057222;28;20487;-96
2021/11/04 00:46:16;;;;;;;72.40;13.50;;;;;;;;;;5057431;28;20445;-93
2021/11/04 00:48:42;;;;;;;77.63;14.40;;;;;;;;;;5057293;28;20448;-95
2021/11/04 00:51:09;;;;;;;73.73;15.90;;;;;;;;;;5056657;28;20443;-95
2021/11/04 00:53:36;;;;;;;81.87;16.07;;;;;;;;;;5054417;28;20530;-94
2021/11/04 00:56:02;;;;;;;78.43;16.23;;;;;;;;;;5054926;28;20452;-94
2021/11/04 00:58:29;;;;;;;79.60;17.00;;;;;;;;;;5054835;28;20571;-95
2021/11/04 01:00:56;;;;;;;72.27;15.80;;;;;;;;;;5056206;28;20475;-95
2021/11/04 01:03:25;;;;;;;73.77;14.83;;;;;;;;;;5056618;28;20488;-93
2021/11/04 01:05:51;;;;;;;76.57;16.70;;;;;;;;;;5056277;28;20455;-93
2021/11/04 01:08:18;;;;;;;72.43;14.80;;;;;;;;;;5056929;28;20448;-95
2021/11/04 01:10:44;;;;;;;72.70;14.87;;;;;;;;;;5057255;28;20445;-96
2021/11/04 01:13:11;;;;;;;72.60;14.63;;;;;;;;;;5055971;28;20516;-95
2021/11/04 01:15:38;;;;;;;70.57;13.73;;;;;;;;;;5057137;28;20477;-96
2021/11/04 01:18:04;;;;;;;70.60;14.30;;;;;;;;;;5056111;28;21033;-96
2021/11/04 01:20:32;;;;;;;70.87;14.90;;;;;;;;;;5056451;28;20462;-95
2021/11/04 01:22:59;;;;;;;70.80;13.90;;;;;;;;;;5056991;28;20541;-96
2021/11/04 01:25:25;;;;;;;70.03;13.90;;;;;;;;;;5057047;28;21174;-94
2021/11/04 01:27:52;;;;;;;70.47;13.83;;;;;;;;;;5054011;28;20470;-95
2021/11/04 01:30:18;;;;;;;74.83;14.97;;;;;;;;;;5056538;28;20437;-95
2021/11/04 01:32:45;;;;;;;70.37;13.70;;;;;;;;;;5054997;28;20489;-96
2021/11/04 01:35:11;;;;;;;71.83;14.57;;;;;;;;;;5055891;28;20472;-96
2021/11/04 01:37:39;;;;;;;71.17;14.80;;;;;;;;;;5055129;28;21321;-93
2021/11/04 01:40:06;;;;;;;71.40;14.57;;;;;;;;;;5054606;28;21010;-95
2021/11/04 01:42:33;;;;;;;71.43;14.83;;;;;;;;;;5056176;28;20472;-92
2021/11/04 01:44:59;;;;;;;72.57;14.60;;;;;;;;;;5055224;28;21701;-95
2021/11/04 01:47:26;;;;;;;69.73;14.40;;;;;;;;;;5054302;28;20450;-95
2021/11/04 01:49:52;;;;;;;72.90;15.80;;;;;;;;;;5054728;28;20438;-92
2021/11/04 01:52:19;;;;;;;72.60;16.13;;;;;;;;;;5053518;28;20475;-95
2021/11/04 01:54:47;;;;;;;77.97;15.67;;;;;;;;;;5053538;28;20450;-94
2021/11/04 01:57:13;;;;;;;74.07;14.40;;;;;;;;;;5055379;28;21280;-95
2021/11/04 01:59:40;;;;;;;73.37;13.70;;;;;;;;;;5054889;28;20495;-94
2021/11/04 02:02:08;;;;;;;72.30;14.97;;;;;;;;;;5056729;28;20442;-93
2021/11/04 02:04:38;;;;;;;71.87;15.00;;;;;;;;;;5055598;28;20432;-93
2021/11/04 02:07:07;;;;;;;72.30;15.17;;;;;;;;;;5054474;28;20497;-93
2021/11/04 02:09:37;;;;;;;70.90;14.47;;;;;;;;;;5052795;28;20487;-94
2021/11/04 02:12:08;;;;;;;78.27;15.50;;;;;;;;;;5054660;28;20448;-93
2021/11/04 02:14:39;;;;;;;72.87;14.47;;;;;;;;;;5054987;28;20484;-92
2021/11/04 02:17:07;;;;;;;70.10;13.97;;;;;;;;;;5054895;28;20507;-93
2021/11/04 02:19:37;;;;;;;71.60;14.40;;;;;;;;;;5055156;28;20444;-94
2021/11/04 02:22:05;;;;;;;71.70;15.00;;;;;;;;;;5054305;28;20450;-92
2021/11/04 02:24:36;;;;;;;76.77;15.20;;;;;;;;;;5054350;28;20452;-94
2021/11/04 02:27:06;;;;;;;72.30;14.90;;;;;;;;;;5053640;28;20937;-95
2021/11/04 02:29:33;;;;;;;72.13;14.43;;;;;;;;;;5054881;28;20463;-93
2021/11/04 02:32:00;;;;;;;77.20;15.90;;;;;;;;;;5054382;28;20446;-94
2021/11/04 02:34:28;;;;;;;72.37;15.33;;;;;;;;;;5054595;28;20773;-95
2021/11/04 02:36:54;;;;;;;76.00;16.47;;;;;;;;;;5054901;28;20959;-93
2021/11/04 02:39:21;;;;;;;75.00;15.77;;;;;;;;;;5053986;28;20496;-93
2021/11/04 02:41:47;;;;;;;72.53;14.80;;;;;;;;;;5055337;28;20877;-93
2021/11/04 02:44:15;;;;;;;76.67;15.70;;;;;;;;;;5054946;28;20460;-93
2021/11/04 02:46:42;;;;;;;72.50;15.20;;;;;;;;;;5054874;28;21177;-92
2021/11/04 02:49:09;;;;;;;76.53;15.70;;;;;;;;;;5055472;28;20445;-93
2021/11/04 02:51:38;;;;;;;77.37;16.40;;;;;;;;;;5055619;28;20475;-93
2021/11/04 02:54:06;;;;;;;73.77;15.97;;;;;;;;;;5054299;28;20623;-93
2021/11/04 02:56:42;;;;;;;78.97;18.10;;;;;;;;;;5058376;28;20446;-93
2021/11/04 02:59:09;;;;;;;76.90;17.47;;;;;;;;;;5056720;28;20447;-93
2021/11/04 03:01:37;;;;;;;77.37;16.40;;;;;;;;;;5059049;28;20448;-91
2021/11/04 03:04:03;;;;;;;76.77;15.10;;;;;;;;;;5059187;28;20503;-94
2021/11/04 03:06:30;;;;;;;81.03;18.20;;;;;;;;;;5058592;28;20437;-93
2021/11/04 03:08:56;;;;;;;79.53;17.90;;;;;;;;;;5056907;28;21975;-93
2021/11/04 03:11:23;;;;;;;76.17;16.47;;;;;;;;;;5057324;28;20512;-93
2021/11/04 03:13:49;;;;;;;82.27;18.00;;;;;;;;;;5057338;28;20488;-94
2021/11/04 03:16:16;;;;;;;74.50;16.03;;;;;;;;;;5057834;28;20447;-94
2021/11/04 03:18:45;;;;;;;72.77;15.00;;;;;;;;;;5057633;28;20522;-94
2021/11/04 03:21:12;;;;;;;71.40;14.83;;;;;;;;;;5056473;28;21226;-94
2021/11/04 03:23:38;;;;;;;74.30;15.10;;;;;;;;;;5052538;28;20536;-94
2021/11/04 03:26:05;;;;;;;77.50;17.70;;;;;;;;;;5051853;28;20469;-93
2021/11/04 03:28:33;;;;;;;72.87;17.00;;;;;;;;;;5054034;28;20444;-93
2021/11/04 03:31:00;;;;;;;75.87;17.30;;;;;;;;;;5056224;28;20462;-93
2021/11/04 03:33:27;;;;;;;76.50;18.30;;;;;;;;;;5050948;28;20615;-93
2021/11/04 03:35:56;;;;;;;76.30;17.93;;;;;;;;;;5050425;28;20475;-94
2021/11/04 03:38:22;;;;;;;75.13;17.70;;;;;;;;;;5049928;28;20489;-94
2021/11/04 03:40:49;;;;;;;82.40;20.53;;;;;;;;;;5049056;28;20452;-95
2021/11/04 03:43:16;;;;;;;80.73;19.50;;;;;;;;;;5050707;28;20478;-93
2021/11/04 03:45:42;;;;;;;75.80;17.47;;;;;;;;;;5048921;28;20434;-94
2021/11/04 03:48:09;;;;;;;82.20;18.00;;;;;;;;;;5054650;28;20483;-94
2021/11/04 03:50:36;;;;;;;74.00;16.70;;;;;;;;;;5054013;28;20469;-94
2021/11/04 03:53:05;;;;;;;73.37;16.27;;;;;;;;;;5052734;28;20474;-93
2021/11/04 03:55:32;;;;;;;75.33;15.90;;;;;;;;;;5056211;28;20438;-94
2021/11/04 03:57:59;;;;;;;77.60;16.87;;;;;;;;;;5056401;28;20444;-93
2021/11/04 04:00:26;;;;;;;75.13;16.70;;;;;;;;;;5056405;28;20439;-96
2021/11/04 04:02:52;;;;;;;78.53;17.50;;;;;;;;;;5058892;28;20496;-95
2021/11/04 04:05:26;;;;;;;76.30;16.70;;;;;;;;;;5058195;28;20477;-95
2021/11/04 04:07:53;;;;;;;73.00;16.37;;;;;;;;;;5056352;28;20494;-94
2021/11/04 04:10:21;;;;;;;80.97;17.20;;;;;;;;;;5057325;28;20452;-96
2021/11/04 04:12:47;;;;;;;74.67;16.63;;;;;;;;;;5055424;28;20486;-95
2021/11/04 04:15:14;;;;;;;77.50;17.37;;;;;;;;;;5058203;28;20520;-93
2021/11/04 04:17:40;;;;;;;76.77;16.07;;;;;;;;;;5057260;28;20439;-93
2021/11/04 04:20:07;;;;;;;75.37;15.83;;;;;;;;;;5056781;28;21981;-93
2021/11/04 04:22:34;;;;;;;73.10;15.60;;;;;;;;;;5055554;28;20442;-94
2021/11/04 04:25:00;;;;;;;74.33;15.53;;;;;;;;;;5055753;28;20452;-93
2021/11/04 04:27:29;;;;;;;85.40;19.60;;;;;;;;;;5056600;28;20478;-93
2021/11/04 04:29:56;;;;;;;78.17;18.20;;;;;;;;;;5056593;28;20485;-93
2021/11/04 04:32:22;;;;;;;78.57;19.63;;;;;;;;;;5055282;28;20476;-94
2021/11/04 04:34:49;;;;;;;80.07;19.20;;;;;;;;;;5053415;28;20499;-94
2021/11/04 04:37:15;;;;;;;83.17;19.20;;;;;;;;;;5056064;28;20470;-93
2021/11/04 04:39:42;;;;;;;76.10;17.60;;;;;;;;;;5056136;28;20491;-94
2021/11/04 04:42:10;;;;;;;85.67;19.23;;;;;;;;;;5056712;28;20597;-94
2021/11/04 04:44:38;;;;;;;88.37;21.13;;;;;;;;;;5056400;28;20453;-93
2021/11/04 04:47:04;;;;;;;78.57;19.97;;;;;;;;;;5055695;28;20441;-94
2021/11/04 04:49:31;;;;;;;83.20;19.50;;;;;;;;;;5055263;28;20439;-93
2021/11/04 04:51:58;;;;;;;85.27;19.77;;;;;;;;;;5056689;28;20528;-93
2021/11/04 04:54:26;;;;;;;80.03;16.63;;;;;;;;;;5056864;28;20600;-95
2021/11/04 04:56:52;;;;;;;79.97;17.97;;;;;;;;;;5056178;28;21695;-96
2021/11/04 04:59:19;;;;;;;80.03;18.80;;;;;;;;;;5056888;28;20440;-95
2021/11/04 05:01:46;;;;;;;79.03;18.43;;;;;;;;;;5055415;28;20436;-94
2021/11/04 05:04:13;;;;;;;82.07;19.20;;;;;;;;;;5052980;28;20514;-93
2021/11/04 05:06:39;;;;;;;86.50;22.27;;;;;;;;;;5055883;28;20458;-94
2021/11/04 05:09:06;;;;;;;94.20;23.87;;;;;;;;;;5055263;28;21018;-95
2021/11/04 05:11:32;;;;;;;84.33;19.03;;;;;;;;;;5113193;22;21173;-95
2021/11/04 05:13:59;;;;;;;79.40;18.30;;;;;;;;;;5022584;28;20519;-92
2021/11/04 05:16:25;;;;;;;78.97;17.90;;;;;;;;;;5029735;28;20438;-93
2021/11/04 05:18:53;;;;;;;80.83;18.63;;;;;;;;;;5028612;28;20436;-94
2021/11/04 05:21:20;;;;;;;75.13;17.33;;;;;;;;;;5029723;28;21438;-94
2021/11/04 05:23:47;;;;;;;76.37;17.03;;;;;;;;;;5028354;28;20447;-93
2021/11/04 05:26:13;;;;;;;75.37;17.50;;;;;;;;;;5028093;28;20948;-94
2021/11/04 05:28:40;;;;;;;77.60;17.10;;;;;;;;;;5027047;28;20469;-95
2021/11/04 05:31:07;;;;;;;92.83;19.70;;;;;;;;;;5028374;28;20537;-93
2021/11/04 05:33:33;;;;;;;76.60;17.77;;;;;;;;;;5030661;28;20508;-94
2021/11/04 05:36:18;;;;;;;82.80;18.87;;;;;;;;;;5034810;28;20437;-96
2021/11/04 05:38:46;;;;;;;81.37;20.40;;;;;;;;;;5034244;28;20439;-95
2021/11/04 05:41:12;;;;;;;88.17;21.57;;;;;;;;;;5029609;28;20459;-93
2021/11/04 05:43:39;;;;;;;82.17;20.40;;;;;;;;;;5028967;28;20454;-94
2021/11/04 05:46:05;;;;;;;79.67;20.27;;;;;;;;;;5028580;28;20864;-96
2021/11/04 05:48:32;;;;;;;90.30;22.10;;;;;;;;;;5027547;28;20481;-92
2021/11/04 05:50:59;;;;;;;81.47;20.80;;;;;;;;;;5028434;28;20465;-94
2021/11/04 05:53:25;;;;;;;80.07;18.07;;;;;;;;;;5029625;28;20445;-94
2021/11/04 05:55:53;;;;;;;85.93;19.67;;;;;;;;;;5029716;28;20930;-93
2021/11/04 05:58:19;;;;;;;83.47;18.30;;;;;;;;;;5029086;28;21332;-93
2021/11/04 06:00:46;;;;;;;81.13;18.13;;;;;;;;;;5028379;28;20449;-94
2021/11/04 06:03:13;;;;;;;75.10;16.13;;;;;;;;;;5028312;28;20469;-95
2021/11/04 06:05:40;;;;;;;82.57;17.33;;;;;;;;;;5028956;28;20441;-95
2021/11/04 06:08:06;;;;;;;77.97;17.50;;;;;;;;;;5026420;28;20761;-96
2021/11/04 06:10:34;;;;;;;74.87;16.07;;;;;;;;;;5025954;28;20454;-96
2021/11/04 06:13:02;;;;;;;77.40;15.43;;;;;;;;;;5039205;28;20487;-93
2021/11/04 06:15:28;;;;;;;75.50;15.13;;;;;;;;;;5046184;28;20490;-91
2021/11/04 06:17:55;;;;;;;76.53;16.40;;;;;;;;;;5048639;28;20491;-92
2021/11/04 06:20:21;;;;;;;77.70;15.80;;;;;;;;;;5048681;28;20442;-92
2021/11/04 06:22:48;;;;;;;79.13;17.13;;;;;;;;;;5045317;28;21731;-96
2021/11/04 06:25:16;;;;;;;72.63;15.20;;;;;;;;;;5047220;28;20454;-96
2021/11/04 06:27:43;;;;;;;76.87;16.17;;;;;;;;;;5048483;28;20431;-94
2021/11/04 06:30:11;;;;;;;74.17;15.60;;;;;;;;;;5050256;28;20526;-94
2021/11/04 06:32:38;;;;;;;73.27;14.80;;;;;;;;;;5051742;28;20442;-93
2021/11/04 06:35:08;;;;;;;72.70;15.57;;;;;;;;;;5052370;28;20497;-96
2021/11/04 06:37:34;;;;;;;74.00;15.07;;;;;;;;;;5049733;28;20567;-95
2021/11/04 06:40:01;;;;;;;75.50;15.53;;;;;;;;;;5049390;28;20450;-95
2021/11/04 06:42:27;;;;;;;74.57;15.73;;;;;;;;;;5051305;28;20954;-96
2021/11/04 06:44:54;;;;;;;75.57;16.10;;;;;;;;;;5051631;28;20493;-95
2021/11/04 06:47:31;;;;;;;74.60;15.37;;;;;;;;;;5051719;28;20442;-94
2021/11/04 06:49:59;;;;;;;76.23;14.77;;;;;;;;;;5051383;28;20460;-95
2021/11/04 06:52:26;;;;;;;72.97;16.07;;;;;;;;;;5050837;28;20533;-95
2021/11/04 06:54:55;;;;;;;75.10;16.07;;;;;;;;;;5046124;28;21127;-94
2021/11/04 06:57:25;;;;;;;70.37;15.13;;;;;;;;;;5045642;28;20450;-96
2021/11/04 06:59:54;;;;;;;75.33;16.20;;;;;;;;;;5050600;28;20443;-96
2021/11/04 07:02:30;;;;;;;72.87;14.83;;;;;;;;;;5049946;28;20442;-96
2021/11/04 07:04:56;;;;;;;75.30;15.17;;;;;;;;;;5052123;28;20437;-94
2021/11/04 07:07:23;;;;;;;69.43;14.53;;;;;;;;;;5052721;28;20444;-94
2021/11/04 07:09:50;;;;;;;71.20;14.57;;;;;;;;;;5051306;28;20462;-95
2021/11/04 07:12:16;;;;;;;75.13;15.07;;;;;;;;;;5050953;28;20504;-94
2021/11/04 07:14:44;;;;;;;72.20;14.80;;;;;;;;;;5051536;28;20495;-96
2021/11/04 07:17:11;;;;;;;71.80;14.60;;;;;;;;;;5051329;28;20439;-93
2021/11/04 07:19:39;;;;;;;69.87;14.37;;;;;;;;;;5052174;28;20470;-92
2021/11/04 07:22:09;;;;;;;76.27;15.20;;;;;;;;;;5050266;28;20443;-92
2021/11/04 07:24:43;;;;;;;71.77;14.13;;;;;;;;;;5050658;28;20443;-91
2021/11/04 07:27:14;;;;;;;72.27;13.70;;;;;;;;;;5048798;28;20846;-95
2021/11/04 07:29:41;;;;;;;73.70;14.27;;;;;;;;;;5049328;28;20462;-93
2021/11/04 07:32:10;;;;;;;70.00;14.23;;;;;;;;;;5049739;28;21118;-95
2021/11/04 07:34:36;;;;;;;71.60;14.93;;;;;;;;;;5048552;28;20556;-91
2021/11/04 07:37:05;;;;;;;71.17;14.47;;;;;;;;;;5050117;28;20438;-96
2021/11/04 07:39:33;;;;;;;74.70;15.40;;;;;;;;;;5050133;28;20482;-92
2021/11/04 07:42:00;;;;;;;74.03;15.03;;;;;;;;;;5047472;28;20476;-95
2021/11/04 07:44:28;;;;;;;72.10;14.63;;;;;;;;;;5043929;28;20486;-93
2021/11/04 07:46:54;;;;;;;75.13;15.37;;;;;;;;;;5042594;28;20511;-93
2021/11/04 07:49:21;;;;;;;71.67;13.87;;;;;;;;;;5045710;28;20447;-91
2021/11/04 07:51:47;;;;;;;70.50;13.87;;;;;;;;;;5049704;28;20441;-92
2021/11/04 07:54:15;;;;;;;69.17;13.83;;;;;;;;;;5050251;28;20482;-93
2021/11/04 07:56:41;;;;;;;71.93;14.40;;;;;;;;;;5050971;28;20478;-92
2021/11/04 07:59:08;;;;;;;71.10;14.40;;;;;;;;;;5048813;28;20443;-94
2021/11/04 08:01:34;;;;;;;72.97;14.30;;;;;;;;;;5049151;28;21056;-93
2021/11/04 08:04:01;;;;;;;70.97;14.60;;;;;;;;;;5048967;28;20455;-92
2021/11/04 08:06:27;;;;;;;68.67;13.53;;;;;;;;;;5048904;28;20529;-87
2021/11/04 08:08:54;;;;;;;75.80;14.00;;;;;;;;;;5048084;28;20451;-92
2021/11/04 08:11:22;;;;;;;68.90;14.00;;;;;;;;;;5048599;28;20474;-93
2021/11/04 08:13:49;;;;;;;71.07;13.27;;;;;;;;;;5052283;28;20529;-93
2021/11/04 08:16:16;;;;;;;69.50;13.30;;;;;;;;;;5052436;28;20504;-92
2021/11/04 08:18:42;;;;;;;69.90;14.67;;;;;;;;;;5051428;28;20470;-95
2021/11/04 08:21:09;;;;;;;71.23;13.93;;;;;;;;;;5051645;28;20791;-95
2021/11/04 08:23:35;;;;;;;71.87;14.00;;;;;;;;;;5048305;28;20492;-92
2021/11/04 08:26:05;;;;;;;69.37;13.23;;;;;;;;;;5050672;28;20443;-90
2021/11/04 08:28:34;;;;;;;72.17;14.30;;;;;;;;;;5032102;28;20487;-96
2021/11/04 08:31:01;;;;;;;73.93;14.27;;;;;;;;;;5051393;28;20441;-96
2021/11/04 08:33:28;;;;;;;69.60;14.67;;;;;;;;;;5049138;28;20439;-93
2021/11/04 08:35:54;;;;;;;70.10;13.30;;;;;;;;;;5049447;28;20572;-95
2021/11/04 08:38:21;;;;;;;70.40;15.67;;;;;;;;;;5048049;28;20432;-94
2021/11/04 08:40:47;;;;;;;67.90;13.13;;;;;;;;;;5051731;28;20465;-94
2021/11/04 08:43:14;;;;;;;69.10;13.53;;;;;;;;;;5048957;28;20446;-96
2021/11/04 08:45:42;;;;;;;68.50;12.63;;;;;;;;;;5050689;28;20480;-96
2021/11/04 08:48:08;;;;;;;70.77;13.63;;;;;;;;;;5050056;28;20446;-94
2021/11/04 08:50:37;;;;;;;67.70;12.17;;;;;;;;;;5050317;28;20453;-96
2021/11/04 08:53:07;;;;;;;66.57;12.37;;;;;;;;;;5052497;28;20450;-96
2021/11/04 08:55:33;;;;;;;68.10;13.30;;;;;;;;;;5052532;28;20485;-93
2021/11/04 08:58:01;;;;;;;68.57;13.10;;;;;;;;;;5050923;28;21237;-96
2021/11/04 09:00:28;;;;;;;69.00;13.00;;;;;;;;;;5051177;28;20455;-96
2021/11/04 09:02:56;;;;;;;67.53;12.53;;;;;;;;;;5050275;28;21175;-93
2021/11/04 09:05:22;;;;;;;70.20;13.60;;;;;;;;;;5052035;28;20435;-94
2021/11/04 09:07:49;;;;;;;68.40;12.90;;;;;;;;;;5051256;28;20439;-95
2021/11/04 09:10:18;;;;;;;69.97;13.20;;;;;;;;;;5049572;28;20470;-94
2021/11/04 09:12:45;;;;;;;65.90;11.97;;;;;;;;;;5051235;28;21497;-96
2021/11/04 09:15:13;;;;;;;68.60;12.30;;;;;;;;;;5052856;28;20514;-96
2021/11/04 09:17:40;;;;;;;;;;;;;;;;;;5050434;28;20296;-96
2021/11/04 09:20:06;;;;;;;;;;;;;;;;;;5049893;28;19936;-96
2021/11/04 09:22:33;;;;;;;;;;;;;;;;;;5048794;28;20501;-92
2021/11/04 09:25:00;;;;;;;;;;;;;;;;;;5048380;28;20027;-93
2021/11/04 09:27:26;;;;;;;;;;;;;;;;;;5049702;28;19920;-94
2021/11/04 09:29:52;;;;;;;;;;;;;;;;;;5049311;28;19979;-91
2021/11/04 09:32:19;;;;;;;;;;;;;;;;;;5048683;28;19982;-94
2021/11/04 09:34:45;;;;;;;;;;;;;;;;;;5048772;28;19990;-96
2021/11/04 09:37:11;;;;;;;;;;;;;;;;;;5048544;28;19928;-94
2021/11/04 09:39:37;;;;;;;;;;;;;;;;;;5049263;28;20362;-93
2021/11/04 09:42:04;;;;;;;;;;;;;;;;;;5049178;28;20248;-92
2021/11/04 09:44:30;;;;;;;;;;;;;;;;;;5049892;28;19990;-94
2021/11/04 09:46:56;;;;;;;;;;;;;;;;;;5049539;28;19921;-94
2021/11/04 09:49:24;;;;;;;;;;;;;;;;;;5049530;28;19921;-96
2021/11/04 09:51:50;;;;;;;;;;;;;;;;;;5048866;28;19929;-93
2021/11/04 09:54:16;;;;;;;;;;;;;;;;;;5048634;28;19929;-93
2021/11/04 09:56:42;;;;;;;;;;;;;;;;;;5048616;28;19924;-94
2021/11/04 09:59:09;;;;;;;;;;;;;;;;;;5048955;28;19921;-90
2021/11/04 10:01:35;;;;;;;;;;;;;;;;;;5048935;28;19921;-96
2021/11/04 10:04:01;;;;;;;;;;;;;;;;;;5049691;28;19921;-92
2021/11/04 10:06:28;;;;;;;;;;;;;;;;;;5049014;28;19924;-93
2021/11/04 10:08:54;;;;;;;;;;;;;;;;;;5049833;28;19929;-94
2021/11/04 10:11:20;;;;;;;;;;;;;;;;;;5049273;28;19955;-94
2021/11/04 10:13:47;;;;;;;;;;;;;;;;;;5049226;28;19929;-93
2021/11/04 10:16:13;;;;;;;;;;;;;;;;;;5049100;28;20023;-94
2021/11/04 10:18:39;;;;;;;;;;;;;;;;;;5049552;28;20218;-95
2021/11/04 10:21:05;;;;;;;;;;;;;;;;;;5049348;28;20004;-94
2021/11/04 10:23:37;;;;;;;67.60;12.63;;;;;;;;;;5048823;28;20059;-94
2021/11/04 10:26:05;;;;;;;65.60;12.40;;;;;;;;;;5049018;28;20439;-95
2021/11/04 10:28:32;;;;;;;65.50;12.60;;;;;;;;;;5049256;28;20456;-93
2021/11/04 10:30:59;;;;;;;65.47;12.40;;;;;;;;;;5047996;28;20465;-94
2021/11/04 10:33:27;;;;;;;66.90;12.90;;;;;;;;;;5046619;28;20471;-95
2021/11/04 10:36:00;;;;;;;66.90;13.50;;;;;;;;;;5048382;28;20493;-92
2021/11/04 10:38:30;;;;;;;70.00;12.17;;;;;;;;;;5048171;28;20446;-94
2021/11/04 10:40:58;;;;;;;65.50;12.57;;;;;;;;;;5049646;28;20442;-95
2021/11/04 10:43:28;;;;;;;67.00;12.00;;;;;;;;;;5048738;28;20521;-96
2021/11/04 10:46:01;;;;;;;64.67;12.87;;;;;;;;;;5049171;28;20438;-94
2021/11/04 10:48:31;;;;;;;67.70;12.03;;;;;;;;;;5047783;28;20443;-96
2021/11/04 10:50:57;;;;;;;70.60;13.60;;;;;;;;;;5048976;28;20493;-92
2021/11/04 10:53:25;;;;;;;65.90;12.67;;;;;;;;;;5047908;28;20426;-96
2021/11/04 10:55:52;;;;;;;67.60;12.70;;;;;;;;;;5047518;28;20468;-93
2021/11/04 10:58:31;;;;;;;67.07;12.53;;;;;;;;;;5049158;28;20488;-94
2021/11/04 11:00:58;;;;;;;69.03;12.80;;;;;;;;;;5049430;28;20576;-95
2021/11/04 11:03:27;;;;;;;67.10;13.00;;;;;;;;;;5046293;28;20514;-96
2021/11/04 11:05:56;;;;;;;65.80;13.33;;;;;;;;;;5046806;28;20454;-96
2021/11/04 11:08:26;;;;;;;67.97;12.30;;;;;;;;;;5050894;28;20514;-96
2021/11/04 11:10:52;;;;;;;69.50;12.00;;;;;;;;;;5049165;28;20528;-96
2021/11/04 11:13:19;;;;;;;66.20;13.20;;;;;;;;;;5049027;28;20485;-94
2021/11/04 11:15:49;;;;;;;67.53;12.17;;;;;;;;;;5049388;28;20547;-96
2021/11/04 11:18:19;;;;;;;67.10;12.70;;;;;;;;;;5051374;28;20456;-93
2021/11/04 11:20:46;;;;;;;67.47;12.70;;;;;;;;;;5052592;28;20446;-95
2021/11/04 11:23:14;;;;;;;67.47;13.57;;;;;;;;;;5050129;28;20450;-94
2021/11/04 11:25:41;;;;;;;66.67;12.33;;;;;;;;;;5053066;28;20481;-95
2021/11/04 11:28:08;;;;;;;69.17;12.80;;;;;;;;;;5053010;28;20462;-94
2021/11/04 11:30:36;;;;;;;67.27;11.83;;;;;;;;;;5053326;28;20476;-93
2021/11/04 11:33:22;;;;;;;67.70;13.17;;;;;;;;;;5050499;28;21760;-94
2021/11/04 11:36:07;;;;;;;67.47;12.53;;;;;;;;;;5053816;28;20454;-96
2021/11/04 11:38:55;;;;;;;67.27;13.43;;;;;;;;;;5051943;28;20442;-95
2021/11/04 11:41:22;;;;;;;67.17;12.50;;;;;;;;;;5050470;28;20435;-92
2021/11/04 11:43:54;;;;;;;68.40;13.80;;;;;;;;;;5050866;28;20454;-96
2021/11/04 11:46:22;;;;;;;70.07;12.03;;;;;;;;;;5053277;28;20478;-96
2021/11/04 11:49:05;;;;;;;70.50;13.77;;;;;;;;;;5051742;28;20442;-94
2021/11/04 11:51:38;;;;;;;66.27;12.87;;;;;;;;;;5053124;28;20431;-96
2021/11/04 11:54:06;;;;;;;67.57;13.10;;;;;;;;;;5055062;28;20474;-96
2021/11/04 11:56:33;;;;;;;67.07;13.80;;;;;;;;;;5051376;28;20502;-94
2021/11/04 11:59:15;;;;;;;66.30;13.37;;;;;;;;;;5053786;28;20466;-94
2021/11/04 12:01:44;;;;;;;70.50;13.27;;;;;;;;;;5050141;28;20442;-96
2021/11/04 12:04:22;;;;;;;68.97;14.30;;;;;;;;;;5051818;28;20411;-95
2021/11/04 12:07:27;;;;;;;68.53;14.00;;;;;;;;;;5059142;28;20462;-96
2021/11/04 12:09:55;;;;;;;69.17;13.50;;;;;;;;;;5056899;28;20458;-96
2021/11/04 12:12:45;;;;;;;67.37;14.53;;;;;;;;;;5072413;22;20513;-96
2021/11/04 12:15:12;;;;;;;68.47;15.07;;;;;;;;;;5178305;22;20450;-93
2021/11/04 12:17:38;;;;;;;66.37;13.03;;;;;;;;;;5032508;28;20451;-96
2021/11/04 12:20:07;;;;;;;72.10;13.17;;;;;;;;;;5032358;28;20444;-93
2021/11/04 12:22:37;;;;;;;71.63;14.00;;;;;;;;;;5031232;28;20498;-95
2021/11/04 12:25:06;;;;;;;69.43;13.07;;;;;;;;;;5031341;28;20452;-94
2021/11/04 12:27:34;;;;;;;66.47;13.20;;;;;;;;;;5031478;28;20498;-95
2021/11/04 12:30:11;;;;;;;65.07;13.50;;;;;;;;;;5032179;28;20471;-95
2021/11/04 12:32:38;;;;;;;66.90;13.37;;;;;;;;;;5032286;28;20440;-96
2021/11/04 12:35:05;;;;;;;68.30;13.10;;;;;;;;;;5033415;28;20443;-94
2021/11/04 12:37:32;;;;;;;67.57;14.00;;;;;;;;;;5032170;28;20491;-96
2021/11/04 12:39:59;;;;;;;72.20;12.93;;;;;;;;;;5032437;28;20483;-95
2021/11/04 12:45:33;;;;;;;66.37;12.53;;;;;;;;;;5033695;28;20427;-93
2021/11/04 12:48:01;;;;;;;69.50;14.80;;;;;;;;;;5032650;28;20467;-92
2021/11/04 12:50:28;;;;;;;73.17;13.77;;;;;;;;;;5031287;28;20462;-92
2021/11/04 12:52:59;;;;;;;69.50;14.37;;;;;;;;;;5027995;28;20443;-93
2021/11/04 12:55:26;;;;;;;66.07;14.43;;;;;;;;;;5028138;28;20460;-95
2021/11/04 12:57:58;;;;;;;67.80;13.57;;;;;;;;;;5029586;28;20444;-94
2021/11/04 13:00:24;;;;;;;65.80;13.20;;;;;;;;;;5029737;28;20502;-94
2021/11/04 13:02:51;;;;;;;66.70;13.50;;;;;;;;;;5032592;28;20447;-95
2021/11/04 13:05:19;;;;;;;69.43;13.20;;;;;;;;;;5031188;28;20452;-93
2021/11/04 13:07:49;;;;;;;67.07;13.57;;;;;;;;;;5029546;28;20517;-94
2021/11/04 13:10:19;;;;;;;69.30;14.43;;;;;;;;;;5028334;28;20530;-95
2021/11/04 13:12:46;;;;;;;67.97;13.87;;;;;;;;;;5027656;28;20451;-94
2021/11/04 13:15:15;;;;;;;67.37;13.23;;;;;;;;;;5032424;28;20443;-95
2021/11/04 13:17:44;;;;;;;66.27;12.77;;;;;;;;;;5029741;28;20492;-94
2021/11/04 13:20:12;;;;;;;68.57;13.53;;;;;;;;;;5030023;28;20463;-96
2021/11/04 13:22:40;;;;;;;72.47;13.80;;;;;;;;;;5029522;28;20463;-93
2021/11/04 13:25:08;;;;;;;65.80;13.90;;;;;;;;;;5027632;28;20471;-93
2021/11/04 13:27:35;;;;;;;65.90;13.00;;;;;;;;;;5027643;28;20440;-95
2021/11/04 13:30:03;;;;;;;67.37;13.20;;;;;;;;;;5026466;28;20487;-95
2021/11/04 13:32:31;;;;;;;68.30;13.30;;;;;;;;;;5029252;28;20462;-93
2021/11/04 13:35:01;;;;;;;70.47;13.47;;;;;;;;;;5029336;28;20451;-94
2021/11/04 13:37:35;;;;;;;68.87;14.30;;;;;;;;;;5079803;23;20497;-93
2021/11/04 13:40:02;;;;;;;69.10;13.10;;;;;;;;;;5027257;28;20461;-95
2021/11/04 13:42:30;;;;;;;69.10;13.00;;;;;;;;;;5031512;28;20444;-94
2021/11/04 13:45:10;;;;;;;70.13;14.57;;;;;;;;;;5026444;28;20503;-95
2021/11/04 13:47:39;;;;;;;68.90;13.57;;;;;;;;;;5031356;28;20483;-93
2021/11/04 13:50:06;;;;;;;69.47;13.73;;;;;;;;;;5029537;28;20440;-95
2021/11/04 13:52:35;;;;;;;67.70;13.40;;;;;;;;;;5030551;28;21199;-93
2021/11/04 13:55:02;;;;;;;68.27;14.00;;;;;;;;;;5033113;28;20562;-96
2021/11/04 13:57:46;;;;;;;68.40;14.10;;;;;;;;;;5048658;28;20521;-96
2021/11/04 14:00:19;;;;;;;66.20;14.30;;;;;;;;;;5029227;28;20464;-93
2021/11/04 14:02:48;;;;;;;68.60;13.30;;;;;;;;;;5037313;28;20447;-96
2021/11/04 14:05:15;;;;;;;69.70;13.50;;;;;;;;;;5029229;28;20828;-93
2021/11/04 14:07:50;;;;;;;70.03;12.90;;;;;;;;;;5029192;28;20452;-94
2021/11/04 14:10:16;;;;;;;72.47;14.30;;;;;;;;;;5028869;28;20447;-95
2021/11/04 14:12:44;;;;;;;67.67;13.30;;;;;;;;;;5028771;28;20490;-92
2021/11/04 14:15:12;;;;;;;65.87;13.70;;;;;;;;;;5029548;28;20444;-95
2021/11/04 14:17:47;;;;;;;67.90;14.20;;;;;;;;;;5028839;28;20482;-93
2021/11/04 14:20:13;;;;;;;69.13;14.10;;;;;;;;;;5026600;28;20495;-94
2021/11/04 14:22:40;;;;;;;66.43;12.40;;;;;;;;;;5029059;28;20446;-93
2021/11/04 14:25:10;;;;;;;69.07;13.60;;;;;;;;;;5028468;28;20459;-93
2021/11/04 14:27:36;;;;;;;67.90;14.13;;;;;;;;;;5029729;28;20441;-92
2021/11/04 14:30:04;;;;;;;67.60;14.90;;;;;;;;;;5023344;28;20856;-90
2021/11/04 14:32:30;;;;;;;68.63;14.80;;;;;;;;;;5023898;28;20452;-95
2021/11/04 14:34:58;;;;;;;68.40;14.60;;;;;;;;;;5028321;28;20445;-96